Time;durP1;ratioP1;P1;durP2;ratioP2;P2;SDS_P1;SDS_P2;PMS_P1;PMS_P2;Temp;Humidity;BMP_temperature;BMP_pressure;BME280_temperature;BME280_humidity;BME280_pressure;Samples;Min_cycle;Max_cycle;Signal;HPM_P1;HPM_P2
2023/11/28 00:00:39;;;;;;;0.20;0.20;;;;;;;5.96;70.85;100040.38;5070280;28;20021;-81
2023/11/28 00:03:05;;;;;;;0.20;0.20;;;;;;;5.93;70.83;100043.03;5068928;28;20029;-81
2023/11/28 00:05:31;;;;;;;0.20;0.20;;;;;;;5.83;70.68;100053.69;5065171;28;20048;-81
2023/11/28 00:08:00;;;;;;;0.20;0.20;;;;;;;5.91;70.81;100055.34;5066470;28;20118;-81
2023/11/28 00:10:26;;;;;;;0.47;0.47;;;;;;;5.87;70.41;100058.88;5065299;28;20511;-81
2023/11/28 00:12:52;;;;;;;0.20;0.20;;;;;;;5.86;70.89;100059.75;5068232;28;20503;-82
2023/11/28 00:15:18;;;;;;;0.20;0.20;;;;;;;5.85;70.91;100060.69;5064588;28;20041;-80
2023/11/28 00:17:45;;;;;;;0.20;0.20;;;;;;;5.87;70.82;100078.19;5057671;28;20108;-82
2023/11/28 00:20:11;;;;;;;0.20;0.20;;;;;;;5.86;70.52;100070.28;5057143;28;20033;-83
2023/11/28 00:22:37;;;;;;;0.82;0.55;;;;;;;5.76;70.60;100073.03;5056709;28;20396;-82
2023/11/28 00:25:04;;;;;;;0.65;0.65;;;;;;;5.86;70.12;100083.44;5058902;28;20520;-80
2023/11/28 00:27:30;;;;;;;0.40;0.40;;;;;;;5.87;70.61;100085.19;5061196;28;20095;-82
2023/11/28 00:29:56;;;;;;;0.20;0.20;;;;;;;5.92;70.66;100084.25;5060004;28;20024;-82
2023/11/28 00:32:23;;;;;;;0.20;0.20;;;;;;;5.98;70.55;100088.53;5059957;28;20051;-84
2023/11/28 00:34:49;;;;;;;0.20;0.20;;;;;;;6.03;70.99;100105.19;5058054;28;20484;-81
2023/11/28 00:37:15;;;;;;;0.20;0.20;;;;;;;6.04;70.85;100093.75;5057164;28;20048;-82
2023/11/28 00:39:41;;;;;;;0.20;0.20;;;;;;;5.96;70.42;100106.09;5059290;28;20017;-82
2023/11/28 00:42:07;;;;;;;0.68;0.68;;;;;;;5.98;70.55;100104.31;5059354;28;20029;-79
2023/11/28 00:44:34;;;;;;;0.20;0.20;;;;;;;5.97;70.28;100118.38;5059053;28;20025;-82
2023/11/28 00:47:00;;;;;;;0.10;0.10;;;;;;;5.95;70.11;100115.75;5059442;28;20021;-81
2023/11/28 00:49:26;;;;;;;0.10;0.10;;;;;;;5.94;70.15;100123.66;5056569;28;20593;-81
2023/11/28 00:51:53;;;;;;;0.20;0.20;;;;;;;5.88;69.96;100124.63;5053857;28;20037;-81
2023/11/28 00:54:20;;;;;;;0.20;0.20;;;;;;;5.92;70.09;100135.94;5055273;28;20504;-82
2023/11/28 00:56:46;;;;;;;0.20;0.20;;;;;;;5.79;69.77;100135.22;5058535;28;20194;-80
2023/11/28 00:59:13;;;;;;;0.32;0.32;;;;;;;5.72;69.71;100139.69;5057035;28;20025;-81
2023/11/28 01:01:39;;;;;;;0.10;0.10;;;;;;;5.72;69.44;100154.56;5058011;28;20057;-81
2023/11/28 01:04:05;;;;;;;0.17;0.17;;;;;;;5.71;69.61;100150.19;5055234;28;20047;-82
2023/11/28 01:06:31;;;;;;;0.22;0.22;;;;;;;5.72;69.83;100160.72;5053894;28;20097;-82
2023/11/28 01:08:57;;;;;;;0.85;0.85;;;;;;;5.65;69.26;100164.28;5054512;28;20389;-81
2023/11/28 01:11:24;;;;;;;0.10;0.10;;;;;;;5.54;69.58;100171.44;5058593;28;20396;-82
2023/11/28 01:13:50;;;;;;;0.20;0.20;;;;;;;5.50;69.08;100176.69;5060563;28;20154;-82
2023/11/28 01:16:17;;;;;;;0.65;0.65;;;;;;;5.48;69.25;100182.84;5061201;28;20028;-81
2023/11/28 01:18:45;;;;;;;0.20;0.20;;;;;;;5.55;69.73;100178.44;5058648;28;20036;-82
2023/11/28 01:21:11;;;;;;;0.20;0.20;;;;;;;5.47;69.75;100187.25;5059775;28;20029;-82
2023/11/28 01:23:37;;;;;;;0.20;0.20;;;;;;;5.53;69.84;100186.31;5059411;28;20028;-83
2023/11/28 01:26:04;;;;;;;0.43;0.43;;;;;;;5.55;69.77;100195.06;5059306;28;20095;-82
2023/11/28 01:28:30;;;;;;;0.20;0.20;;;;;;;5.56;69.62;100196.81;5059707;28;20029;-81
2023/11/28 01:30:56;;;;;;;0.10;0.10;;;;;;;5.55;69.95;100200.31;5060333;28;20105;-83
2023/11/28 01:33:23;;;;;;;0.20;0.20;;;;;;;5.54;69.90;100209.06;5056833;28;20060;-83
2023/11/28 01:35:49;;;;;;;0.20;0.20;;;;;;;5.56;70.27;100214.31;5054528;28;20036;-83
2023/11/28 01:38:16;;;;;;;0.20;0.20;;;;;;;5.57;70.19;100210.78;5054687;28;20412;-83
2023/11/28 01:40:42;;;;;;;0.10;0.10;;;;;;;5.45;70.04;100219.69;5054793;28;20025;-83
2023/11/28 01:43:08;;;;;;;0.20;0.20;;;;;;;5.51;70.20;100228.38;5054127;28;20082;-83
2023/11/28 01:45:35;;;;;;;0.40;0.40;;;;;;;5.58;70.13;100225.69;5054590;28;20033;-82
2023/11/28 01:48:01;;;;;;;0.15;0.15;;;;;;;5.59;70.20;100236.19;5053871;28;20029;-82
2023/11/28 01:50:27;;;;;;;0.20;0.20;;;;;;;5.63;70.01;100237.03;5049883;28;20087;-84
2023/11/28 01:52:54;;;;;;;0.20;0.20;;;;;;;5.62;70.24;100248.41;5062010;28;20111;-80
2023/11/28 01:55:20;;;;;;;0.20;0.20;;;;;;;5.66;70.05;100252.78;5083052;28;20088;-79
2023/11/28 01:57:48;;;;;;;0.10;0.10;;;;;;;5.66;70.10;100260.66;5075465;28;20033;-81
2023/11/28 02:00:15;;;;;;;0.95;0.95;;;;;;;5.66;70.40;100268.56;5078304;28;20021;-81
2023/11/28 02:02:41;;;;;;;0.20;0.20;;;;;;;5.64;70.04;100283.44;5083081;28;20054;-80
2023/11/28 02:05:08;;;;;;;0.50;0.50;;;;;;;5.63;70.17;100281.69;5080895;28;20029;-81
2023/11/28 02:07:34;;;;;;;0.20;0.20;;;;;;;5.64;70.27;100284.31;5076929;28;20052;-80
2023/11/28 02:10:01;;;;;;;0.20;0.20;;;;;;;5.60;69.89;100284.38;5077709;28;20018;-83
2023/11/28 02:12:27;;;;;;;0.20;0.20;;;;;;;5.56;69.66;100290.50;5069667;28;20044;-82
2023/11/28 02:14:53;;;;;;;0.20;0.20;;;;;;;5.58;69.53;100294.00;5066466;28;20032;-83
2023/11/28 02:17:20;;;;;;;0.55;0.55;;;;;;;5.55;69.68;100294.91;5068643;28;20028;-81
2023/11/28 02:19:50;;;;;;;0.20;0.20;;;;;;;5.49;70.02;100301.06;5056412;28;20017;-82
2023/11/28 02:22:17;;;;;;;0.20;0.20;;;;;;;5.56;69.96;100308.91;5053710;28;20386;-83
2023/11/28 02:24:45;;;;;;;0.20;0.20;;;;;;;5.56;69.63;100311.53;5054789;28;20029;-83
2023/11/28 02:27:12;;;;;;;0.25;0.25;;;;;;;5.56;69.72;100316.78;5053367;28;20036;-83
2023/11/28 02:29:38;;;;;;;0.20;0.20;;;;;;;5.50;69.43;100323.84;5054812;28;20424;-81
2023/11/28 02:32:04;;;;;;;0.20;0.20;;;;;;;5.44;69.11;100329.16;5054661;28;20037;-82
2023/11/28 02:34:30;;;;;;;0.20;0.20;;;;;;;5.50;69.75;100336.97;5054685;28;20097;-82
2023/11/28 02:36:56;;;;;;;0.45;0.45;;;;;;;5.53;69.21;100335.22;5054757;28;20510;-82
2023/11/28 02:39:23;;;;;;;0.20;0.20;;;;;;;5.57;69.25;100337.84;5055029;28;20503;-83
2023/11/28 02:41:49;;;;;;;0.20;0.20;;;;;;;5.60;69.61;100344.81;5053564;28;20064;-82
2023/11/28 02:44:15;;;;;;;0.20;0.20;;;;;;;5.49;68.93;100351.00;5054183;28;20492;-82
2023/11/28 02:46:42;;;;;;;0.20;0.20;;;;;;;5.58;69.43;100357.97;5054057;28;20427;-82
2023/11/28 02:49:09;;;;;;;0.43;0.43;;;;;;;5.51;69.11;100357.13;5053621;28;20464;-82
2023/11/28 02:51:35;;;;;;;0.20;0.20;;;;;;;5.48;68.82;100370.31;5056920;28;20032;-82
2023/11/28 02:54:01;;;;;;;0.20;0.20;;;;;;;5.55;68.93;100370.25;5057569;28;20037;-82
2023/11/28 02:56:27;;;;;;;0.30;0.30;;;;;;;5.51;68.62;100380.78;5053499;28;20029;-82
2023/11/28 02:58:56;;;;;;;0.20;0.20;;;;;;;5.56;68.99;100382.50;5053279;28;20040;-82
2023/11/28 03:01:22;;;;;;;0.20;0.20;;;;;;;5.57;68.71;100392.13;5053415;28;20063;-82
2023/11/28 03:03:49;;;;;;;0.20;0.20;;;;;;;5.55;68.39;100391.28;5054046;28;20083;-81
2023/11/28 03:06:15;;;;;;;1.20;1.20;;;;;;;5.59;68.70;100400.88;5053107;28;20029;-80
2023/11/28 03:08:41;;;;;;;0.20;0.20;;;;;;;5.57;68.75;100402.63;5053674;28;20025;-83
2023/11/28 03:11:09;;;;;;;0.20;0.20;;;;;;;5.57;68.71;100411.41;5052953;28;20112;-82
2023/11/28 03:13:35;;;;;;;0.20;0.20;;;;;;;5.45;68.61;100408.84;5053218;28;20032;-82
2023/11/28 03:16:02;;;;;;;0.30;0.30;;;;;;;5.31;68.43;100425.56;5050785;28;20090;-81
2023/11/28 03:18:29;;;;;;;0.50;0.50;;;;;;;5.16;66.85;100426.50;5044184;28;20033;-81
2023/11/28 03:20:55;;;;;;;0.20;0.20;;;;;;;5.10;67.59;100431.78;5052608;28;20056;-81
2023/11/28 03:23:21;;;;;;;0.20;0.20;;;;;;;4.79;66.15;100434.50;5052310;28;20090;-81
2023/11/28 03:25:47;;;;;;;0.20;0.20;;;;;;;4.74;66.32;100441.53;5052834;28;20032;-81
2023/11/28 03:28:13;;;;;;;0.20;0.20;;;;;;;4.61;66.05;100443.31;5052996;28;20029;-82
2023/11/28 03:30:39;;;;;;;0.20;0.20;;;;;;;4.38;66.29;100438.09;5052644;28;20013;-81
2023/11/28 03:33:06;;;;;;;0.20;0.20;;;;;;;4.23;65.15;100451.25;5052046;28;20072;-81
2023/11/28 03:35:32;;;;;;;0.20;0.20;;;;;;;4.20;65.46;100452.97;5052606;28;20538;-82
2023/11/28 03:37:58;;;;;;;0.20;0.20;;;;;;;4.11;65.91;100455.63;5054726;28;20033;-82
2023/11/28 03:40:24;;;;;;;0.20;0.20;;;;;;;4.10;65.98;100463.44;5057328;28;20033;-82
2023/11/28 03:42:51;;;;;;;0.20;0.20;;;;;;;4.05;66.26;100461.72;5056136;28;20149;-82
2023/11/28 03:45:17;;;;;;;0.20;0.20;;;;;;;3.99;66.27;100460.84;5056344;28;20036;-82
2023/11/28 03:47:43;;;;;;;0.20;0.20;;;;;;;3.94;66.09;100465.19;5056719;28;20041;-81
2023/11/28 03:50:10;;;;;;;0.30;0.30;;;;;;;3.84;66.42;100465.19;5055938;28;20021;-81
2023/11/28 03:52:37;;;;;;;0.30;0.30;;;;;;;3.84;66.55;100473.03;5055384;28;20508;-83
2023/11/28 03:55:03;;;;;;;0.20;0.20;;;;;;;3.76;66.89;100477.38;5056539;28;20036;-82
2023/11/28 03:57:29;;;;;;;0.20;0.20;;;;;;;3.76;66.64;100481.75;5056187;28;20047;-82
2023/11/28 03:59:56;;;;;;;0.20;0.20;;;;;;;3.72;66.84;100483.50;5055968;28;20373;-82
2023/11/28 04:02:22;;;;;;;0.20;0.20;;;;;;;3.69;66.98;100499.22;5054728;28;20033;-83
2023/11/28 04:04:48;;;;;;;0.20;0.20;;;;;;;3.67;67.17;100487.84;5055378;28;20029;-83
2023/11/28 04:07:14;;;;;;;0.30;0.30;;;;;;;3.62;67.06;100489.59;5055494;28;20029;-81
2023/11/28 04:09:43;;;;;;;0.20;0.20;;;;;;;3.53;66.72;100493.06;5055617;28;20033;-81
2023/11/28 04:12:09;;;;;;;0.20;0.20;;;;;;;3.50;66.92;100496.56;5054753;28;20033;-81
2023/11/28 04:14:35;;;;;;;0.25;0.25;;;;;;;3.47;66.69;100487.81;5055253;28;20079;-81
2023/11/28 04:17:01;;;;;;;0.20;0.20;;;;;;;3.43;66.82;100492.16;5055283;28;20067;-83
2023/11/28 04:19:27;;;;;;;0.30;0.30;;;;;;;3.39;66.69;100506.13;5055432;28;20032;-82
2023/11/28 04:21:53;;;;;;;0.20;0.20;;;;;;;3.34;66.10;100505.19;5057661;28;20033;-81
2023/11/28 04:24:19;;;;;;;0.40;0.40;;;;;;;3.35;66.43;100526.19;5058327;28;20032;-82
2023/11/28 04:26:46;;;;;;;0.20;0.20;;;;;;;3.31;66.57;100518.28;5057015;28;20045;-81
2023/11/28 04:29:12;;;;;;;0.30;0.30;;;;;;;3.25;66.44;100519.13;5056322;28;20025;-82
2023/11/28 04:31:38;;;;;;;0.20;0.20;;;;;;;3.21;66.45;100528.69;5055819;28;20655;-81
2023/11/28 04:34:04;;;;;;;0.30;0.30;;;;;;;3.19;66.38;100521.72;5055572;28;20059;-82
2023/11/28 04:36:31;;;;;;;0.20;0.20;;;;;;;3.19;66.38;100530.47;5056211;28;20029;-81
2023/11/28 04:38:59;;;;;;;0.25;0.25;;;;;;;3.19;66.41;100527.84;5055765;28;20447;-81
2023/11/28 04:41:27;;;;;;;0.20;0.20;;;;;;;3.08;66.54;100532.16;5055957;28;20057;-81
2023/11/28 04:43:53;;;;;;;0.20;0.20;;;;;;;3.13;67.01;100546.13;5056158;28;20029;-81
2023/11/28 04:46:20;;;;;;;0.20;0.20;;;;;;;3.13;66.87;100546.13;5055093;28;20037;-81
2023/11/28 04:48:46;;;;;;;0.28;0.28;;;;;;;3.10;66.92;100543.47;5055535;28;20497;-81
2023/11/28 04:51:12;;;;;;;0.28;0.28;;;;;;;3.08;67.20;100551.34;5057126;28;20053;-80
2023/11/28 04:53:39;;;;;;;0.20;0.20;;;;;;;3.05;66.91;100555.66;5064236;28;20507;-82
2023/11/28 04:56:06;;;;;;;0.20;0.20;;;;;;;3.05;66.93;100555.66;5065212;28;20388;-80
2023/11/28 04:58:34;;;;;;;0.20;0.20;;;;;;;3.06;67.02;100560.03;5062922;28;20057;-80
2023/11/28 05:01:03;;;;;;;0.20;0.20;;;;;;;3.03;67.14;100554.81;5062708;28;20581;-80
2023/11/28 05:03:29;;;;;;;0.20;0.20;;;;;;;2.92;67.64;100560.81;5061997;28;20029;-81
2023/11/28 05:05:55;;;;;;;0.20;0.20;;;;;;;2.92;67.45;100560.81;5061575;28;20033;-81
2023/11/28 05:08:21;;;;;;;0.30;0.30;;;;;;;2.96;67.78;100576.56;5061096;28;20029;-80
2023/11/28 05:10:48;;;;;;;0.20;0.20;;;;;;;2.96;67.95;100587.88;5062265;28;20456;-81
2023/11/28 05:13:14;;;;;;;0.20;0.20;;;;;;;2.97;68.06;100592.28;5061757;28;20035;-80
2023/11/28 05:15:40;;;;;;;0.20;0.20;;;;;;;2.97;67.96;100599.25;5063634;28;20136;-81
2023/11/28 05:18:06;;;;;;;0.30;0.30;;;;;;;2.96;68.27;100602.72;5061426;28;20516;-80
2023/11/28 05:20:33;;;;;;;0.20;0.20;;;;;;;2.88;68.20;100606.16;5062230;28;20101;-80
2023/11/28 05:22:59;;;;;;;0.25;0.25;;;;;;;2.82;67.77;100608.72;5061720;28;20036;-80
2023/11/28 05:25:27;;;;;;;0.20;0.20;;;;;;;2.90;68.08;100612.28;5063630;28;20029;-81
2023/11/28 05:27:53;;;;;;;0.20;0.20;;;;;;;2.90;68.06;100612.28;5064880;28;20396;-79
2023/11/28 05:30:19;;;;;;;0.38;0.38;;;;;;;2.91;68.10;100615.78;5061584;28;20025;-80
2023/11/28 05:32:45;;;;;;;0.20;0.20;;;;;;;2.88;68.40;100623.63;5061995;28;20484;-80
2023/11/28 05:35:11;;;;;;;0.30;0.30;;;;;;;2.87;68.13;100630.56;5061508;28;20040;-81
2023/11/28 05:37:38;;;;;;;0.20;0.20;;;;;;;2.79;67.63;100624.41;5062250;28;20025;-81
2023/11/28 05:40:04;;;;;;;0.30;0.30;;;;;;;2.82;68.11;100642.75;5063270;28;20027;-80
2023/11/28 05:42:30;;;;;;;0.20;0.20;;;;;;;2.86;67.40;100634.03;5061490;28;20143;-81
2023/11/28 05:44:56;;;;;;;0.20;0.20;;;;;;;2.89;67.68;100643.66;5063633;28;20662;-81
2023/11/28 05:47:23;;;;;;;0.20;0.20;;;;;;;2.90;67.74;100643.69;5062811;28;20056;-79
2023/11/28 05:49:49;;;;;;;0.30;0.30;;;;;;;2.89;67.35;100646.28;5063234;28;20124;-79
2023/11/28 05:52:15;;;;;;;0.15;0.15;;;;;;;2.86;67.43;100656.75;5060485;28;20225;-80
2023/11/28 05:54:41;;;;;;;0.20;0.20;;;;;;;2.87;67.50;100648.88;5060820;28;20039;-80
2023/11/28 05:57:07;;;;;;;0.20;0.20;;;;;;;2.88;67.60;100642.81;5060136;28;20508;-80
2023/11/28 05:59:34;;;;;;;0.20;0.20;;;;;;;2.81;67.55;100648.84;5061229;28;20044;-79
2023/11/28 06:02:03;;;;;;;0.20;0.20;;;;;;;2.82;67.58;100655.84;5052752;28;20086;-79
2023/11/28 06:04:30;;;;;;;0.20;0.20;;;;;;;2.81;67.28;100643.59;5054857;28;20060;-80
2023/11/28 06:06:57;;;;;;;0.20;0.20;;;;;;;2.80;67.38;100649.69;5061125;28;20032;-81
2023/11/28 06:09:23;;;;;;;0.20;0.20;;;;;;;2.81;67.48;100656.69;5061716;28;20032;-81
2023/11/28 06:11:51;;;;;;;0.20;0.20;;;;;;;2.82;67.78;100650.59;5061579;28;20028;-79
2023/11/28 06:14:19;;;;;;;0.20;0.20;;;;;;;2.81;67.72;100655.81;5062134;28;20069;-80
2023/11/28 06:16:45;;;;;;;0.30;0.30;;;;;;;2.83;67.87;100673.28;5061365;28;20028;-78
2023/11/28 06:19:12;;;;;;;0.20;0.20;;;;;;;2.82;67.86;100674.16;5061799;28;20123;-79
2023/11/28 06:21:38;;;;;;;0.20;0.20;;;;;;;2.83;67.35;100686.38;5063487;28;20024;-81
2023/11/28 06:24:04;;;;;;;0.22;0.22;;;;;;;2.83;68.01;100686.38;5067224;28;20029;-78
2023/11/28 06:26:30;;;;;;;0.20;0.20;;;;;;;2.80;67.71;100675.00;5071037;28;20032;-78
2023/11/28 06:28:56;;;;;;;0.30;0.30;;;;;;;2.82;67.98;100692.47;5069327;28;20024;-76
2023/11/28 06:31:23;;;;;;;0.20;0.20;;;;;;;2.83;67.69;100696.84;5064208;28;20033;-79
2023/11/28 06:33:49;;;;;;;0.30;0.30;;;;;;;2.83;68.01;100699.47;5070517;28;20032;-80
2023/11/28 06:36:18;;;;;;;0.20;0.20;;;;;;;2.83;67.64;100703.78;5068817;28;20008;-77
2023/11/28 06:38:44;;;;;;;0.20;0.20;;;;;;;2.80;67.87;100712.50;5063808;28;20036;-78
2023/11/28 06:41:11;;;;;;;0.20;0.20;;;;;;;2.78;67.90;100727.31;5064858;28;20024;-79
2023/11/28 06:43:37;;;;;;;0.22;0.22;;;;;;;2.77;67.63;100724.66;5063692;28;20052;-80
2023/11/28 06:46:03;;;;;;;0.20;0.20;;;;;;;2.77;67.74;100730.78;5060985;28;20051;-79
2023/11/28 06:48:30;;;;;;;0.20;0.20;;;;;;;2.74;68.00;100731.63;5060970;28;20025;-79
2023/11/28 06:50:56;;;;;;;0.30;0.30;;;;;;;2.73;67.94;100731.63;5062540;28;20055;-79
2023/11/28 06:53:22;;;;;;;0.20;0.20;;;;;;;2.74;67.93;100743.81;5060641;28;20033;-79
2023/11/28 06:55:48;;;;;;;0.20;0.20;;;;;;;2.72;67.52;100748.19;5058536;28;20110;-80
2023/11/28 06:58:15;;;;;;;0.20;0.20;;;;;;;2.68;67.84;100751.59;5056340;28;20033;-80
2023/11/28 07:00:41;;;;;;;0.57;0.57;;;;;;;2.74;67.99;100756.91;5057455;28;20025;-80
2023/11/28 07:03:08;;;;;;;0.25;0.25;;;;;;;2.81;68.01;100757.88;5056570;28;20033;-79
2023/11/28 07:05:34;;;;;;;0.20;0.20;;;;;;;2.94;68.07;100765.00;5053619;28;20036;-82
2023/11/28 07:08:01;;;;;;;1.00;1.00;;;;;;;3.03;67.94;100762.44;5055204;28;20033;-80
2023/11/28 07:10:27;;;;;;;0.20;0.20;;;;;;;3.16;67.98;100765.19;5056547;28;20132;-80
2023/11/28 07:12:53;;;;;;;0.25;0.25;;;;;;;3.25;67.96;100770.50;5060310;28;20404;-80
2023/11/28 07:15:20;;;;;;;0.20;0.20;;;;;;;3.38;68.23;100776.72;5060023;28;20061;-81
2023/11/28 07:17:47;;;;;;;0.30;0.30;;;;;;;3.49;68.73;100790.78;5059628;28;20027;-81
2023/11/28 07:20:14;;;;;;;0.20;0.20;;;;;;;3.59;68.47;100794.38;5061793;28;20017;-82
2023/11/28 07:22:40;;;;;;;0.40;0.40;;;;;;;3.67;68.21;100799.66;5062305;28;20023;-81
2023/11/28 07:25:09;;;;;;;0.20;0.20;;;;;;;3.75;68.29;100791.84;5061436;28;20025;-80
2023/11/28 07:27:35;;;;;;;0.20;0.20;;;;;;;3.83;68.08;100796.28;5059148;28;20021;-79
2023/11/28 07:30:02;;;;;;;0.20;0.20;;;;;;;3.89;67.69;100804.19;5061144;28;20045;-80
2023/11/28 07:32:28;;;;;;;0.22;0.22;;;;;;;3.98;67.79;100805.13;5060648;28;20459;-80
2023/11/28 07:34:54;;;;;;;0.20;0.20;;;;;;;4.07;68.18;100802.53;5062843;28;20135;-80
2023/11/28 07:37:21;;;;;;;0.28;0.28;;;;;;;4.11;67.75;100798.19;5062262;28;20040;-81
2023/11/28 07:39:47;;;;;;;0.20;0.20;;;;;;;4.19;68.03;100807.00;5063976;28;20080;-80
2023/11/28 07:42:16;;;;;;;0.20;0.20;;;;;;;4.21;67.76;100808.75;5064331;28;20048;-82
2023/11/28 07:44:42;;;;;;;0.20;0.20;;;;;;;4.24;67.26;100809.63;5065862;28;20025;-82
2023/11/28 07:47:08;;;;;;;0.20;0.20;;;;;;;4.23;67.58;100805.28;5065677;28;20036;-82
2023/11/28 07:49:34;;;;;;;0.40;0.40;;;;;;;4.16;67.48;100805.25;5065927;28;20029;-82
2023/11/28 07:52:00;;;;;;;0.20;0.20;;;;;;;4.11;67.38;100806.97;5068259;28;20025;-81
2023/11/28 07:54:27;;;;;;;0.20;0.20;;;;;;;4.05;67.09;100805.16;5067173;28;20039;-81
2023/11/28 07:56:53;;;;;;;0.20;0.20;;;;;;;4.01;67.19;100802.50;5067279;28;20048;-82
2023/11/28 07:59:19;;;;;;;0.20;0.20;;;;;;;3.94;67.04;100801.59;5068456;28;20101;-82
2023/11/28 08:01:45;;;;;;;0.20;0.20;;;;;;;3.87;67.11;100805.91;5066540;28;20029;-81
2023/11/28 08:04:12;;;;;;;0.20;0.20;;;;;;;3.83;67.08;100809.38;5067145;28;20507;-82
2023/11/28 08:06:40;;;;;;;0.20;0.20;;;;;;;3.78;67.32;100825.97;5066663;28;20120;-80
2023/11/28 08:09:08;;;;;;;0.20;0.20;;;;;;;3.74;67.10;100827.69;5062680;28;20029;-82
2023/11/28 08:11:34;;;;;;;0.20;0.20;;;;;;;3.71;67.11;100827.63;5062417;28;20025;-80
2023/11/28 08:14:00;;;;;;;0.20;0.20;;;;;;;3.70;67.64;100823.25;5065397;28;20634;-80
2023/11/28 08:16:26;;;;;;;0.20;0.20;;;;;;;3.68;67.24;100833.72;5064404;28;20025;-80
2023/11/28 08:18:52;;;;;;;0.30;0.30;;;;;;;3.66;67.46;100824.97;5066416;28;20040;-80
2023/11/28 08:21:18;;;;;;;0.20;0.20;;;;;;;3.65;67.66;100835.44;5065896;28;20060;-81
2023/11/28 08:23:45;;;;;;;0.20;0.20;;;;;;;3.64;67.72;100838.91;5065026;28;20029;-80
2023/11/28 08:26:11;;;;;;;0.22;0.22;;;;;;;3.63;67.69;100837.19;5067627;28;20025;-81
2023/11/28 08:28:37;;;;;;;0.20;0.20;;;;;;;3.64;68.05;100831.97;5064666;28;20040;-78
2023/11/28 08:31:04;;;;;;;0.20;0.20;;;;;;;3.65;67.60;100838.06;5064617;28;20085;-78
2023/11/28 08:33:30;;;;;;;0.22;0.22;;;;;;;3.66;67.69;100845.06;5064030;28;20037;-78
2023/11/28 08:35:56;;;;;;;0.20;0.20;;;;;;;3.67;67.86;100847.69;5065136;28;20021;-79
2023/11/28 08:38:22;;;;;;;0.30;0.30;;;;;;;3.69;67.76;100860.81;5065417;28;20060;-80
2023/11/28 08:40:48;;;;;;;0.20;0.20;;;;;;;3.71;67.84;100853.84;5064015;28;20025;-81
2023/11/28 08:43:14;;;;;;;0.30;0.30;;;;;;;3.73;67.91;100867.84;5063583;28;20112;-80
2023/11/28 08:45:40;;;;;;;0.20;0.20;;;;;;;3.74;67.69;100866.97;5066720;28;20027;-81
2023/11/28 08:48:06;;;;;;;0.20;0.20;;;;;;;3.76;67.83;100875.72;5064218;28;20025;-80
2023/11/28 08:50:33;;;;;;;0.20;0.20;;;;;;;3.82;67.88;100878.38;5064304;28;20056;-80
2023/11/28 08:52:59;;;;;;;0.20;0.20;;;;;;;3.86;67.67;100884.53;5065245;28;20082;-80
2023/11/28 08:55:25;;;;;;;0.30;0.30;;;;;;;3.89;67.95;100892.44;5066380;28;20024;-80
2023/11/28 08:57:52;;;;;;;0.20;0.20;;;;;;;3.95;67.85;100891.59;5062857;28;20052;-81
2023/11/28 09:00:18;;;;;;;0.30;0.30;;;;;;;3.98;68.01;100894.25;5065169;28;20025;-80
2023/11/28 09:02:45;;;;;;;0.20;0.20;;;;;;;4.01;67.47;100891.66;5064872;28;20025;-82
2023/11/28 09:05:11;;;;;;;0.20;0.20;;;;;;;4.05;67.50;100896.06;5064172;28;20016;-81
2023/11/28 09:07:38;;;;;;;0.20;0.20;;;;;;;4.11;67.88;100896.13;5064545;28;20036;-81
2023/11/28 09:10:05;;;;;;;0.20;0.20;;;;;;;4.14;67.42;100896.13;5063689;28;20027;-79
2023/11/28 09:12:31;;;;;;;0.20;0.20;;;;;;;4.19;67.63;100898.78;5063440;28;20033;-81
2023/11/28 09:14:57;;;;;;;0.17;0.17;;;;;;;4.25;67.66;100903.19;5064719;28;20025;-79
2023/11/28 09:17:24;;;;;;;0.20;0.20;;;;;;;4.27;67.31;100902.31;5063452;28;20523;-81
2023/11/28 09:19:50;;;;;;;0.20;0.20;;;;;;;4.32;67.14;100903.22;5065828;28;20595;-80
2023/11/28 09:22:17;;;;;;;0.20;0.20;;;;;;;4.34;67.04;100911.13;5064536;28;20100;-81
2023/11/28 09:24:43;;;;;;;0.20;0.20;;;;;;;4.42;67.05;100914.66;5065051;28;20044;-83
2023/11/28 09:27:12;;;;;;;0.30;0.30;;;;;;;4.46;67.04;100905.97;5061956;28;20108;-83
2023/11/28 09:29:38;;;;;;;0.30;0.30;;;;;;;4.53;66.95;100912.97;5064031;28;20029;-80
2023/11/28 09:32:04;;;;;;;0.20;0.20;;;;;;;4.60;66.81;100918.25;5062183;28;20033;-80
2023/11/28 09:34:32;;;;;;;0.20;0.20;;;;;;;4.67;67.07;100920.06;5063677;28;20053;-81
2023/11/28 09:36:58;;;;;;;0.20;0.20;;;;;;;4.69;66.59;100915.72;5062302;28;20055;-81
2023/11/28 09:39:26;;;;;;;0.20;0.20;;;;;;;4.73;66.37;100913.97;5063789;28;20093;-80
2023/11/28 09:41:52;;;;;;;0.20;0.20;;;;;;;4.78;66.31;100923.63;5062254;28;20570;-83
2023/11/28 09:44:25;;;;;;;0.20;0.20;;;;;;;4.84;66.20;100923.66;5063059;28;20037;-83
2023/11/28 09:46:55;;;;;;;0.20;0.20;;;;;;;4.86;65.97;100924.53;5058373;28;20033;-82
2023/11/28 09:49:23;;;;;;;0.20;0.20;;;;;;;4.89;65.57;100928.06;5063234;28;20060;-83
2023/11/28 09:51:53;;;;;;;0.20;0.20;;;;;;;4.94;65.72;100927.19;5062094;28;20051;-81
2023/11/28 09:54:20;;;;;;;0.20;0.20;;;;;;;4.98;65.77;100928.09;5062752;28;20088;-82
2023/11/28 09:56:47;;;;;;;0.20;0.20;;;;;;;5.02;65.12;100929.84;5063352;28;20029;-83
2023/11/28 09:59:13;;;;;;;0.20;0.20;;;;;;;5.08;65.29;100935.13;5062625;28;20095;-81
2023/11/28 10:01:43;;;;;;;0.20;0.20;;;;;;;5.14;64.50;100937.78;5063313;28;20451;-82
2023/11/28 10:04:09;;;;;;;0.20;0.20;;;;;;;5.15;64.04;100934.28;5064258;28;20092;-84
2023/11/28 10:06:41;;;;;;;0.20;0.20;;;;;;;5.24;64.91;100945.72;5063669;28;20036;-82
2023/11/28 10:09:09;;;;;;;0.20;0.20;;;;;;;5.28;63.87;100940.50;5063837;28;20029;-81
2023/11/28 10:11:38;;;;;;;0.20;0.20;;;;;;;5.33;64.68;100948.34;5064166;28;20017;-82
2023/11/28 10:14:04;;;;;;;0.20;0.20;;;;;;;5.39;64.77;100951.00;5062978;28;20037;-82
2023/11/28 10:16:47;;;;;;;0.20;0.20;;;;;;;5.51;64.16;100950.19;5061905;28;20043;-81
2023/11/28 10:19:13;;;;;;;0.30;0.30;;;;;;;5.49;63.78;100958.03;5061360;28;20048;-82
2023/11/28 10:21:40;;;;;;;0.20;0.20;;;;;;;5.57;63.94;100950.19;5061431;28;20326;-81
2023/11/28 10:24:08;;;;;;;0.20;0.20;;;;;;;5.63;63.91;100954.56;5060953;28;20048;-81
2023/11/28 10:26:36;;;;;;;0.13;0.13;;;;;;;5.68;63.82;100952.81;5061111;28;20415;-82
2023/11/28 10:29:05;;;;;;;0.17;0.17;;;;;;;5.74;63.40;100951.97;5062523;28;20028;-83
2023/11/28 10:31:40;;;;;;;0.20;0.20;;;;;;;5.82;63.72;100950.25;5062000;28;20033;-82
2023/11/28 10:34:10;;;;;;;0.10;0.10;;;;;;;5.77;63.04;100955.50;5063085;28;20033;-84
2023/11/28 10:36:42;;;;;;;0.17;0.17;;;;;;;5.86;62.99;100948.47;5061335;28;20109;-82
2023/11/28 10:39:10;;;;;;;0.30;0.30;;;;;;;5.89;64.21;100937.97;5061824;28;20020;-82
2023/11/28 10:41:38;;;;;;;0.20;0.20;;;;;;;5.93;62.36;100937.09;5062627;28;20403;-81
2023/11/28 10:44:04;;;;;;;0.30;0.30;;;;;;;6.00;61.99;100938.88;5056977;28;20085;-80
2023/11/28 10:46:34;;;;;;;0.20;0.20;;;;;;;6.11;62.82;100923.97;5062999;28;20032;-81
2023/11/28 10:49:01;;;;;;;0.13;0.13;;;;;;;6.18;62.31;100926.59;5061096;28;20036;-82
2023/11/28 10:51:30;;;;;;;0.20;0.20;;;;;;;6.25;61.96;100920.47;5064229;28;20051;-82
2023/11/28 10:54:04;;;;;;;0.20;0.20;;;;;;;6.34;62.16;100920.44;5069431;28;20041;-81
2023/11/28 10:56:52;;;;;;;0.20;0.20;;;;;;;6.42;60.63;100921.31;5065496;28;20096;-82
2023/11/28 10:59:40;;;;;;;0.20;0.20;;;;;;;6.48;62.07;100915.19;5064760;28;20567;-81
2023/11/28 11:02:08;;;;;;;0.20;0.20;;;;;;;6.51;61.93;100920.44;5064018;28;20031;-81
2023/11/28 11:04:35;;;;;;;0.20;0.20;;;;;;;6.56;61.59;100933.59;5064970;28;20029;-80
2023/11/28 11:07:02;;;;;;;0.20;0.20;;;;;;;6.64;63.03;100934.44;5060019;28;20064;-81
2023/11/28 11:09:30;;;;;;;0.20;0.20;;;;;;;6.67;61.50;100931.81;5063294;28;20025;-80
2023/11/28 11:11:58;;;;;;;0.20;0.20;;;;;;;6.75;61.40;100939.69;5068207;28;20071;-82
2023/11/28 11:17:27;;;;;;;0.47;0.47;;;;;;;6.93;60.40;100938.75;5120687;27;20338;-82
2023/11/28 11:19:58;;;;;;;0.90;0.90;;;;;;;6.92;63.20;100929.09;5113301;28;20087;-83
2023/11/28 11:22:29;;;;;;;0.20;0.20;;;;;;;6.90;61.34;100918.56;5110022;28;20028;-81
2023/11/28 11:24:58;;;;;;;0.20;0.20;;;;;;;6.94;61.85;100929.94;5109283;28;20031;-82
2023/11/28 11:27:26;;;;;;;0.20;0.20;;;;;;;6.98;63.79;100926.44;5107891;28;20028;-81
2023/11/28 11:29:52;;;;;;;0.50;0.50;;;;;;;7.00;62.60;100931.69;5108699;28;20070;-81
2023/11/28 11:32:22;;;;;;;0.20;0.20;;;;;;;7.02;61.46;100920.28;5106422;28;20030;-82
2023/11/28 11:34:50;;;;;;;0.20;0.20;;;;;;;7.07;62.72;100923.75;5109057;28;20023;-81